Time;durP1;ratioP1;P1;durP2;ratioP2;P2;SDS_P1;SDS_P2;PMS_P1;PMS_P2;Temp;Humidity;BMP_temperature;BMP_pressure;BME280_temperature;BME280_humidity;BME280_pressure;Samples;Min_cycle;Max_cycle;Signal;HPM_P1;HPM_P2
2023/10/19 00:00:43;;;;;;;;;;;;;;;18.20;48.77;101640.03;4955281;28;19922;-81
2023/10/19 00:03:09;;;;;;;;;;;;;;;18.21;49.08;101643.56;4972265;28;19918;-80
2023/10/19 00:05:35;;;;;;;;;;;;;;;18.11;49.19;101642.31;4974282;28;19914;-80
2023/10/19 00:08:05;;;;;;;;;;;;;;;18.31;48.72;101641.31;4973731;28;19921;-80
2023/10/19 00:10:34;;;;;;;;;;;;;;;18.10;49.07;101636.16;4971266;28;19918;-79
2023/10/19 00:13:03;;;;;;;;;;;;;;;18.23;48.81;101636.59;4954954;28;19921;-80
2023/10/19 00:15:31;;;;;;;;;;;;;;;18.36;48.46;101641.47;4955548;28;20001;-81
2023/10/19 00:17:59;;;;;;;;;;;;;;;18.27;48.56;101642.06;4971570;28;19997;-79
2023/10/19 00:20:59;;;;;;;;;;;;;;;18.15;49.06;101638.06;4970595;28;19940;-81
2023/10/19 00:23:24;;;;;;;;;;;;;;;18.17;48.81;101639.91;4955164;28;20300;-80
2023/10/19 00:25:52;;;;;;;;;;;;;;;18.18;48.81;101638.16;4967554;28;20399;-81
2023/10/19 00:28:18;;;;;;;;;;;;;;;18.27;48.67;101638.50;4955808;28;20005;-79
2023/10/19 00:30:45;;;;;;;;;;;;;;;18.25;48.40;101640.22;4968082;28;20016;-78
2023/10/19 00:33:18;;;;;;;;;;;;;;;18.11;48.93;101634.41;4973783;28;20375;-80
2023/10/19 00:35:47;;;;;;;;;;;;;;;18.18;48.72;101641.72;4959041;28;19949;-79
2023/10/19 00:38:27;;;;;;;;;;;;;;;18.20;48.61;101633.81;4960946;28;19981;-80
2023/10/19 00:41:00;;;;;;;;;;;;;;;18.25;48.58;101648.13;4968535;28;19922;-80
2023/10/19 00:43:32;;;;;;;;;;;;;;;18.20;48.41;101634.75;4972659;28;19918;-80
2023/10/19 00:45:58;;;;;;;;;;;;;;;18.33;48.27;101630.81;4971849;28;19922;-80
2023/10/19 00:48:26;;;;;;;;;;;;;;;18.20;48.45;101634.75;4970243;28;19969;-80
2023/10/19 00:50:54;;;;;;;;;;;;;;;18.20;48.36;101636.47;4964873;28;19918;-79
2023/10/19 00:53:19;;;;;;;;;;;;;;;18.21;48.31;101630.34;4973557;28;20004;-80
2023/10/19 00:55:45;;;;;;;;;;;;;;;18.07;48.72;101633.38;4954422;28;20032;-80
2023/10/19 00:58:17;;;;;;;;;;;;;;;18.13;48.60;101627.41;4955167;28;19969;-79
2023/10/19 01:00:43;;;;;;;;;;;;;;;18.19;48.32;101627.66;4973229;28;19922;-79
2023/10/19 01:03:10;;;;;;;;;;;;;;;18.15;48.55;101616.91;4973546;28;19915;-81
2023/10/19 01:05:38;;;;;;;;;;;;;;;18.23;48.15;101618.09;4972423;28;20462;-80
2023/10/19 01:08:14;;;;;;;;;;;;;;;18.21;48.07;101625.97;4972564;28;19957;-79
2023/10/19 01:10:40;;;;;;;;;;;;;;;18.15;48.40;101617.81;4971985;28;19917;-79
2023/10/19 01:13:05;;;;;;;;;;;;;;;18.07;48.56;101620.16;4973529;28;20384;-79
2023/10/19 01:15:36;;;;;;;;;;;;;;;18.17;48.17;101621.41;4971143;28;20507;-79
2023/10/19 01:18:02;;;;;;;;;;;;;;;17.96;48.77;101626.78;4956537;28;19998;-79
2023/10/19 01:25:38;;;;;;;;;;;;;;;17.92;48.92;101619.59;4971678;28;20380;-81
2023/10/19 01:28:07;;;;;;;;;;;;;;;18.09;48.33;101621.09;4971456;28;20573;-80
2023/10/19 01:30:33;;;;;;;;;;;;;;;17.86;48.73;101617.63;4968421;28;19972;-79
2023/10/19 01:32:59;;;;;;;;;;;;;;;17.87;48.92;101615.88;4972005;28;19933;-79
2023/10/19 01:35:27;;;;;;;;;;;;;;;17.91;48.64;101607.25;4971905;28;19922;-80
2023/10/19 01:37:52;;;;;;;;;;;;;;;17.97;48.55;101610.13;4972473;28;20013;-80
2023/10/19 01:40:20;;;;;;;;;;;;;;;17.85;48.87;101607.00;4970034;28;20444;-80
2023/10/19 01:42:46;;;;;;;;;;;;;;;18.03;48.56;101605.06;4971882;28;19914;-79
2023/10/19 01:45:11;;;;;;;;;;;;;;;17.89;48.54;101607.16;4968411;28;20362;-80
2023/10/19 01:47:37;;;;;;;;;;;;;;;17.81;48.85;101600.66;4972572;28;19918;-80
2023/10/19 01:50:05;;;;;;;;;;;;;;;17.84;48.74;101605.19;4970771;28;19940;-80
2023/10/19 01:52:30;;;;;;;;;;;;;;;18.03;48.39;101602.41;4961990;28;19973;-80
2023/10/19 01:55:02;;;;;;;;;;;;;;;18.09;47.98;101605.25;4969348;28;19926;-80
2023/10/19 01:57:28;;;;;;;;;;;;;;;18.13;47.89;101605.38;4961342;28;20285;-80
2023/10/19 01:59:53;;;;;;;;;;;;;;;17.91;48.60;101594.03;4969769;28;19925;-80
2023/10/19 02:02:21;;;;;;;;;;;;;;;17.87;48.62;101602.69;4970209;28;19973;-81
2023/10/19 02:04:49;;;;;;;;;;;;;;;17.85;48.76;101604.34;4964947;28;19925;-80
2023/10/19 02:07:17;;;;;;;;;;;;;;;17.92;48.47;101600.19;4960300;28;20311;-81
2023/10/19 02:09:43;;;;;;;;;;;;;;;17.94;48.29;101607.34;4964941;28;19929;-80
2023/10/19 02:12:08;;;;;;;;;;;;;;;18.05;48.06;101599.81;4953585;28;19914;-80
2023/10/19 02:14:34;;;;;;;;;;;;;;;17.92;48.54;101606.38;4966233;28;20433;-80
2023/10/19 02:17:00;;;;;;;;;;;;;;;17.90;48.54;101603.66;4954307;28;19961;-79
2023/10/19 02:19:26;;;;;;;;;;;;;;;17.95;48.34;101590.66;4960169;28;19922;-80
2023/10/19 02:21:52;;;;;;;;;;;;;;;17.87;48.48;101594.75;4970376;28;20721;-80
2023/10/19 02:24:18;;;;;;;;;;;;;;;17.83;48.57;101593.72;4970705;28;19918;-80
2023/10/19 02:26:44;;;;;;;;;;;;;;;17.89;48.40;101601.88;4958623;28;20281;-80
2023/10/19 02:29:10;;;;;;;;;;;;;;;17.79;48.59;101604.97;4953423;28;19914;-80
2023/10/19 02:31:39;;;;;;;;;;;;;;;17.72;48.84;101600.31;4960996;28;20415;-80
2023/10/19 02:34:07;;;;;;;;;;;;;;;17.74;48.75;101598.63;4960992;28;19924;-78
2023/10/19 02:36:33;;;;;;;;;;;;;;;17.61;49.08;101605.19;4971968;28;20414;-81
2023/10/19 02:39:07;;;;;;;;;;;;;;;17.73;48.57;101596.81;4969734;28;20020;-79
2023/10/19 02:41:35;;;;;;;;;;;;;;;17.59;48.92;101606.88;4967580;28;19915;-81
2023/10/19 02:44:09;;;;;;;;;;;;;;;17.59;49.03;101598.94;4971193;28;20327;-80
2023/10/19 02:46:38;;;;;;;;;;;;;;;17.74;48.42;101603.00;4971442;28;20304;-79
2023/10/19 02:49:09;;;;;;;;;;;;;;;17.83;48.21;101595.47;4972004;28;19957;-80
2023/10/19 02:51:34;;;;;;;;;;;;;;;17.70;48.34;101592.31;4958973;28;19914;-80
2023/10/19 02:54:02;;;;;;;;;;;;;;;17.76;48.41;101591.66;4970226;28;19925;-79
2023/10/19 02:56:29;;;;;;;;;;;;;;;17.64;48.89;101584.16;4967305;28;19972;-80
2023/10/19 02:58:59;;;;;;;;;;;;;;;17.61;48.66;101585.78;4953018;28;20388;-81
2023/10/19 03:01:29;;;;;;;;;;;;;;;17.70;48.66;101586.16;4967507;28;20041;-81
2023/10/19 03:03:59;;;;;;;;;;;;;;;17.64;48.62;101586.81;4971608;28;19918;-80
2023/10/19 03:06:25;;;;;;;;;;;;;;;17.70;48.50;101589.69;4972145;28;20008;-79
2023/10/19 03:11:35;;;;;;;;;;;;;;;17.65;48.61;101577.13;4955956;28;19961;-80
2023/10/19 03:14:04;;;;;;;;;;;;;;;17.59;48.64;101583.09;4969735;28;20380;-79
2023/10/19 03:16:30;;;;;;;;;;;;;;;17.59;48.59;101584.81;4973902;28;19964;-80
2023/10/19 03:18:56;;;;;;;;;;;;;;;17.69;48.34;101590.53;4974549;28;19965;-80
2023/10/19 03:21:26;;;;;;;;;;;;;;;17.55;48.94;101590.84;4975550;28;20017;-79
2023/10/19 03:23:53;;;;;;;;;;;;;;;17.43;48.81;101581.59;4972748;28;19929;-79
2023/10/19 03:26:30;;;;;;;;;;;;;;;17.59;48.61;101579.53;4964977;28;19915;-80
2023/10/19 03:28:56;;;;;;;;;;;;;;;17.77;48.03;101585.53;4956195;28;19921;-80
2023/10/19 03:31:25;;;;;;;;;;;;;;;17.58;48.48;101581.28;4966883;28;19922;-81
2023/10/19 03:33:54;;;;;;;;;;;;;;;17.66;48.06;101579.84;4973746;28;20407;-79
2023/10/19 03:36:22;;;;;;;;;;;;;;;17.49;48.63;101586.22;4970876;28;19922;-81
2023/10/19 03:38:49;;;;;;;;;;;;;;;17.57;48.49;101582.16;4968371;28;19922;-81
2023/10/19 03:41:15;;;;;;;;;;;;;;;17.44;48.57;101582.50;4969343;28;19918;-81
2023/10/19 03:43:41;;;;;;;;;;;;;;;17.53;48.50;101588.16;4963247;28;19930;-81
2023/10/19 03:46:18;;;;;;;;;;;;;;;17.50;48.36;101588.00;4971739;28;20327;-81
2023/10/19 03:48:46;;;;;;;;;;;;;;;17.47;48.48;101583.50;4967561;28;19926;-81
2023/10/19 03:51:13;;;;;;;;;;;;;;;17.52;48.16;101583.69;4971506;28;20064;-81
2023/10/19 03:53:43;;;;;;;;;;;;;;;17.46;48.54;101587.00;4967162;28;19918;-80
2023/10/19 03:56:10;;;;;;;;;;;;;;;17.38;48.54;101577.88;4965631;28;19928;-80
2023/10/19 03:58:38;;;;;;;;;;;;;;;17.44;48.25;101582.50;4950004;28;19918;-82
2023/10/19 04:01:05;;;;;;;;;;;;;;;17.47;48.36;101582.63;4969969;28;19918;-81
2023/10/19 04:03:31;;;;;;;;;;;;;;;17.50;48.23;101578.38;4970393;28;19929;-81
2023/10/19 04:06:00;;;;;;;;;;;;;;;17.50;48.02;101577.44;4973326;28;19918;-81
2023/10/19 04:08:26;;;;;;;;;;;;;;;17.33;48.53;101574.16;4958995;28;20406;-81
2023/10/19 04:13:36;;;;;;;;;;;;;;;17.36;48.42;101570.75;4971204;28;20077;-81
2023/10/19 04:16:02;;;;;;;;;;;;;;;17.37;48.36;101575.19;4975973;28;20409;-81
2023/10/19 04:18:28;;;;;;;;;;;;;;;17.36;48.33;101569.00;4966512;28;19936;-79
2023/10/19 04:23:20;;;;;;;;;;;;;;;17.37;48.38;101578.72;4972763;28;19918;-81
2023/10/19 04:25:46;;;;;;;;;;;;;;;17.37;48.46;101569.91;4972044;28;19925;-80
2023/10/19 04:28:13;;;;;;;;;;;;;;;17.44;48.24;101574.56;4972837;28;19930;-80
2023/10/19 04:30:39;;;;;;;;;;;;;;;17.30;48.48;101574.94;4969628;28;19918;-81
2023/10/19 04:33:08;;;;;;;;;;;;;;;17.45;48.04;101573.75;4966846;28;19976;-79
2023/10/19 04:35:34;;;;;;;;;;;;;;;17.35;48.39;101576.84;4972508;28;20398;-79
2023/10/19 04:38:00;;;;;;;;;;;;;;;17.42;48.16;101571.88;4961374;28;19918;-80
2023/10/19 04:40:26;;;;;;;;;;;;;;;17.31;48.32;101575.81;4954562;28;19922;-81
2023/10/19 04:42:53;;;;;;;;;;;;;;;17.59;47.67;101571.63;4961504;28;19922;-79
2023/10/19 04:45:18;;;;;;;;;;;;;;;17.50;48.93;101572.16;4968608;28;20408;-80
2023/10/19 04:47:44;;;;;;;;;;;;;;;17.29;49.84;101575.78;4971912;28;19918;-81
2023/10/19 04:50:10;;;;;;;;;;;;;;;17.29;49.11;101575.78;4953552;28;19918;-82
2023/10/19 04:52:36;;;;;;;;;;;;;;;17.39;48.54;101584.97;4972261;28;19918;-80
2023/10/19 04:55:01;;;;;;;;;;;;;;;17.40;48.32;101581.50;4971866;28;19991;-79
2023/10/19 04:57:27;;;;;;;;;;;;;;;17.35;48.41;101580.38;4963062;28;19948;-80
2023/10/19 04:59:52;;;;;;;;;;;;;;;17.17;48.72;101583.22;4962648;28;20395;-80
2023/10/19 05:02:18;;;;;;;;;;;;;;;17.38;48.13;101585.81;4971529;28;20340;-79
2023/10/19 05:04:43;;;;;;;;;;;;;;;17.33;48.18;101590.00;4971391;28;19925;-79
2023/10/19 05:07:12;;;;;;;;;;;;;;;17.12;48.44;101595.31;4970657;28;20316;-79
2023/10/19 05:09:39;;;;;;;;;;;;;;;17.24;48.24;101587.88;4964228;28;19922;-78
2023/10/19 05:12:09;;;;;;;;;;;;;;;17.28;48.18;101586.28;4948248;28;19926;-79
2023/10/19 05:14:35;;;;;;;;;;;;;;;17.29;48.02;101588.06;4971362;28;19918;-79
2023/10/19 05:17:04;;;;;;;;;;;;;;;17.30;48.09;101595.16;4968200;28;19929;-80
2023/10/19 05:19:30;;;;;;;;;;;;;;;17.31;48.01;101591.66;4962741;28;20335;-80
2023/10/19 05:21:56;;;;;;;;;;;;;;;17.50;47.50;101598.56;4968321;28;19921;-79
2023/10/19 05:24:22;;;;;;;;;;;;;;;17.37;47.79;101593.66;4959730;28;19929;-80
2023/10/19 05:26:47;;;;;;;;;;;;;;;17.32;48.44;101601.41;4965822;28;19922;-80
2023/10/19 05:29:13;;;;;;;;;;;;;;;17.41;49.14;101599.13;4968262;28;19925;-80
2023/10/19 05:31:39;;;;;;;;;;;;;;;17.43;49.95;101593.91;4961394;28;19925;-81
2023/10/19 05:34:04;;;;;;;;;;;;;;;17.43;50.43;101601.81;4969083;28;19925;-80
2023/10/19 05:36:32;;;;;;;;;;;;;;;17.46;50.59;101599.28;4965978;28;19922;-82
2023/10/19 05:38:57;;;;;;;;;;;;;;;17.28;49.93;101605.66;4965677;28;19926;-81
2023/10/19 05:41:23;;;;;;;;;;;;;;;17.19;49.45;101612.31;4964580;28;20308;-81
2023/10/19 05:43:49;;;;;;;;;;;;;;;17.05;49.67;101604.72;4970569;28;19925;-81
2023/10/19 05:46:18;;;;;;;;;;;;;;;17.21;48.88;101608.00;4971060;28;20296;-80
2023/10/19 05:48:45;;;;;;;;;;;;;;;17.08;49.01;101606.56;4962186;28;20038;-80
2023/10/19 05:51:10;;;;;;;;;;;;;;;17.01;48.97;101605.44;4960523;28;19941;-83
2023/10/19 05:53:37;;;;;;;;;;;;;;;17.13;48.77;101601.50;4960758;28;20384;-81
2023/10/19 05:56:02;;;;;;;;;;;;;;;17.05;48.86;101603.81;4963507;28;19929;-80
2023/10/19 05:58:28;;;;;;;;;;;;;;;17.16;48.78;101606.91;4968169;28;19926;-81
2023/10/19 06:00:53;;;;;;;;;;;;;;;16.96;48.97;101604.34;4963340;28;20292;-81
2023/10/19 06:03:19;;;;;;;;;;;;;;;17.11;48.67;101608.47;4947050;28;19961;-80
2023/10/19 06:05:44;;;;;;;;;;;;;;;16.91;48.90;101605.88;4967986;28;19918;-81
2023/10/19 06:08:11;;;;;;;;;;;;;;;16.91;49.09;101615.53;4965712;28;19922;-81
2023/10/19 06:10:39;;;;;;;;;;;;;;;17.08;48.55;101607.50;4968229;28;19918;-81
2023/10/19 06:13:09;;;;;;;;;;;;;;;17.03;48.63;101616.06;4957866;28;19925;-82
2023/10/19 06:15:35;;;;;;;;;;;;;;;17.01;48.66;101613.34;4951172;28;19929;-82
2023/10/19 06:18:00;;;;;;;;;;;;;;;17.17;49.92;101614.00;4970597;28;20355;-81
2023/10/19 06:20:26;;;;;;;;;;;;;;;17.21;50.54;101615.94;4967182;28;19926;-82
2023/10/19 06:23:04;;;;;;;;;;;;;;;17.24;50.67;101616.94;4964610;28;19952;-82
2023/10/19 06:25:30;;;;;;;;;;;;;;;17.26;51.24;101612.59;4970221;28;20530;-81
2023/10/19 06:27:59;;;;;;;;;;;;;;;17.15;50.66;101613.94;4965093;28;19918;-80
2023/10/19 06:30:25;;;;;;;;;;;;;;;17.18;50.00;101614.03;4964856;28;19929;-80
2023/10/19 06:32:51;;;;;;;;;;;;;;;17.04;49.64;101615.22;4963616;28;19921;-81
2023/10/19 06:35:20;;;;;;;;;;;;;;;16.89;49.55;101610.22;4962787;28;19972;-80
2023/10/19 06:37:46;;;;;;;;;;;;;;;16.94;49.47;101615.69;4953522;28;19918;-80
2023/10/19 06:40:13;;;;;;;;;;;;;;;17.11;49.00;101619.03;4971728;28;20029;-81
2023/10/19 06:42:39;;;;;;;;;;;;;;;16.99;48.93;101619.41;4962327;28;19964;-81
2023/10/19 06:45:04;;;;;;;;;;;;;;;16.87;49.42;101614.53;4965914;28;19989;-80
2023/10/19 06:47:30;;;;;;;;;;;;;;;16.99;48.97;101616.75;4967757;28;19934;-81
2023/10/19 06:49:56;;;;;;;;;;;;;;;17.05;48.87;101615.28;4969917;28;19961;-80
2023/10/19 06:52:22;;;;;;;;;;;;;;;16.94;48.89;101619.22;4969497;28;19918;-81
2023/10/19 06:54:47;;;;;;;;;;;;;;;16.99;48.81;101617.66;4973884;28;20024;-81
2023/10/19 06:57:13;;;;;;;;;;;;;;;17.00;48.61;101623.88;4972880;28;20315;-81
2023/10/19 06:59:41;;;;;;;;;;;;;;;16.92;49.52;101626.16;4960614;28;19972;-80
2023/10/19 07:02:07;;;;;;;;;;;;;;;16.97;49.86;101624.59;4938810;28;19919;-82
2023/10/19 07:04:33;;;;;;;;;;;;;;;17.04;49.38;101620.50;4937821;28;19937;-80
2023/10/19 07:06:58;;;;;;;;;;;;;;;17.04;49.75;101620.50;4969563;28;19922;-80
2023/10/19 07:09:24;;;;;;;;;;;;;;;17.18;51.10;101619.31;4970133;28;19972;-81
2023/10/19 07:11:54;;;;;;;;;;;;;;;17.01;50.96;101615.09;4970919;28;20004;-80
2023/10/19 07:14:22;;;;;;;;;;;;;;;17.04;50.66;101617.88;4972042;28;19922;-80
2023/10/19 07:16:48;;;;;;;;;;;;;;;17.01;50.53;101613.34;4972464;28;20112;-80
2023/10/19 07:19:14;;;;;;;;;;;;;;;17.04;50.39;101610.84;4971188;28;19929;-81
2023/10/19 07:21:42;;;;;;;;;;;;;;;17.08;50.98;101607.50;4967168;28;19918;-81
2023/10/19 07:24:10;;;;;;;;;;;;;;;17.09;50.70;101601.38;4969861;28;19918;-80
2023/10/19 07:26:43;;;;;;;;;;;;;;;17.10;51.14;101596.97;4969964;28;19914;-80
2023/10/19 07:29:10;;;;;;;;;;;;;;;17.16;51.08;101596.34;4969543;28;20012;-80
2023/10/19 07:31:35;;;;;;;;;;;;;;;17.16;52.07;101596.34;4972475;28;20304;-81
2023/10/19 07:34:01;;;;;;;;;;;;;;;17.13;52.60;101594.47;4970892;28;20121;-81
2023/10/19 07:36:28;;;;;;;;;;;;;;;17.12;52.27;101597.06;4971482;28;19922;-81
2023/10/19 07:38:55;;;;;;;;;;;;;;;17.03;52.33;101601.13;4970694;28;19961;-81
2023/10/19 07:41:20;;;;;;;;;;;;;;;17.12;53.48;101600.59;4963887;28;19977;-81
2023/10/19 07:43:49;;;;;;;;;;;;;;;17.19;52.97;101605.28;4967790;28;19923;-81
2023/10/19 07:46:15;;;;;;;;;;;;;;;17.23;53.34;101590.47;4972268;28;19960;-80
2023/10/19 07:48:40;;;;;;;;;;;;;;;17.23;53.84;101595.72;4967395;28;20430;-80
2023/10/19 07:51:08;;;;;;;;;;;;;;;17.25;54.18;101594.06;4962898;28;19914;-80
2023/10/19 07:53:33;;;;;;;;;;;;;;;17.30;53.54;101589.88;4928947;28;19925;-80
2023/10/19 07:55:59;;;;;;;;;;;;;;;17.29;54.10;101594.28;4974185;28;19918;-80
2023/10/19 07:58:24;;;;;;;;;;;;;;;17.35;54.51;101593.59;4970056;28;19914;-81
2023/10/19 08:00:50;;;;;;;;;;;;;;;17.37;54.19;101591.03;4960399;28;19950;-80
2023/10/19 08:03:16;;;;;;;;;;;;;;;17.37;53.97;101591.91;4957246;28;20222;-79
2023/10/19 08:05:41;;;;;;;;;;;;;;;17.39;54.11;101586.69;4973238;28;20440;-80
2023/10/19 08:08:07;;;;;;;;;;;;;;;17.38;54.23;101584.91;4972899;28;20021;-80
2023/10/19 08:10:34;;;;;;;;;;;;;;;17.41;54.20;101593.84;4974721;28;20444;-81
2023/10/19 08:12:59;;;;;;;;;;;;;;;17.35;54.18;101587.41;4974717;28;19914;-81
2023/10/19 08:15:26;;;;;;;;;;;;;;;17.24;52.96;101587.88;4974322;28;19976;-81
2023/10/19 08:17:53;;;;;;;;;;;;;;;17.24;52.44;101587.88;4974071;28;20327;-81
2023/10/19 08:20:30;;;;;;;;;;;;;;;17.18;52.94;101592.91;4966096;28;20376;-81
2023/10/19 08:22:58;;;;;;;;;;;;;;;17.20;52.71;101585.06;4969269;28;19918;-81
2023/10/19 08:25:27;;;;;;;;;;;;;;;17.16;52.31;101586.69;4961068;28;19919;-81
2023/10/19 08:27:56;;;;;;;;;;;;;;;17.18;51.94;101590.28;4959078;28;19973;-81
2023/10/19 08:30:22;;;;;;;;;;;;;;;17.21;52.74;101581.59;4962864;28;19925;-81
2023/10/19 08:32:48;;;;;;;;;;;;;;;17.20;51.78;101585.06;4961735;28;20297;-80
2023/10/19 08:35:14;;;;;;;;;;;;;;;17.23;51.39;101583.47;4972184;28;19918;-80
2023/10/19 08:37:39;;;;;;;;;;;;;;;17.26;51.38;101586.22;4969691;28;19989;-81
2023/10/19 08:40:06;;;;;;;;;;;;;;;17.22;51.47;101586.03;4964487;28;19958;-80
2023/10/19 08:42:34;;;;;;;;;;;;;;;17.19;51.31;101581.53;4966484;28;19914;-81
2023/10/19 08:44:59;;;;;;;;;;;;;;;17.23;53.90;101588.75;4960998;28;19915;-81
2023/10/19 08:47:25;;;;;;;;;;;;;;;17.20;54.67;101583.31;4950357;28;19926;-80
2023/10/19 08:49:51;;;;;;;;;;;;;;;17.35;55.51;101582.13;4965810;28;19960;-80
2023/10/19 08:52:17;;;;;;;;;;;;;;;17.30;55.77;101584.59;4951881;28;19921;-79
2023/10/19 08:54:43;;;;;;;;;;;;;;;17.29;55.44;101583.72;4971379;28;19960;-81
2023/10/19 08:57:10;;;;;;;;;;;;;;;17.17;55.89;101582.31;4966604;28;19926;-81
2023/10/19 08:59:38;;;;;;;;;;;;;;;17.12;55.52;101574.19;4954153;28;19969;-80
2023/10/19 09:02:03;;;;;;;;;;;;;;;17.12;55.86;101570.66;4967261;28;19922;-80
2023/10/19 09:04:31;;;;;;;;;;;;;;;17.11;55.70;101569.78;4967166;28;19922;-80
2023/10/19 09:06:57;;;;;;;;;;;;;;;17.04;56.66;101578.28;4968590;28;20376;-81
2023/10/19 09:09:25;;;;;;;;;;;;;;;17.05;55.92;101559.84;4968350;28;19949;-81
2023/10/19 09:11:52;;;;;;;;;;;;;;;17.06;56.07;101564.31;4964564;28;20407;-81
2023/10/19 09:14:43;;;;;;;;;;;;;;;17.06;56.44;101559.03;4964801;28;19961;-81
2023/10/19 09:17:09;;;;;;;;;;;;;;;17.08;55.98;101556.44;4965134;28;19953;-81
2023/10/19 09:19:38;;;;;;;;;;;;;;;17.03;56.68;101558.00;4970042;28;19966;-81
2023/10/19 09:22:18;;;;;;;;;;;;;;;17.12;56.48;101549.53;4965287;28;19958;-80
2023/10/19 09:24:45;;;;;;;;;;;;;;;17.15;55.76;101549.69;4965082;28;19945;-81
2023/10/19 09:27:12;;;;;;;;;;;;;;;17.11;57.01;101545.13;4963571;28;19918;-81
2023/10/19 09:29:37;;;;;;;;;;;;;;;17.13;57.28;101549.63;4971140;28;19918;-81
2023/10/19 09:32:04;;;;;;;;;;;;;;;17.11;56.61;101542.50;4968329;28;19918;-80
2023/10/19 09:34:33;;;;;;;;;;;;;;;17.12;56.78;101539.00;4953159;28;20038;-79
2023/10/19 09:37:00;;;;;;;;;;;;;;;17.13;56.96;101535.53;4954305;28;20012;-80
2023/10/19 09:39:37;;;;;;;;;;;;;;;17.13;56.69;101532.91;4971676;28;19914;-80
2023/10/19 09:42:06;;;;;;;;;;;;;;;17.13;56.94;101528.50;4959360;28;19922;-81
2023/10/19 09:44:41;;;;;;;;;;;;;;;17.17;56.52;101525.16;4968040;28;20059;-80
2023/10/19 09:47:17;;;;;;;;;;;;;;;17.16;57.47;101525.09;4970467;28;19980;-81
2023/10/19 09:49:43;;;;;;;;;;;;;;;17.19;56.95;101522.56;4953575;28;19922;-81
2023/10/19 09:52:08;;;;;;;;;;;;;;;17.20;57.08;101516.44;4971538;28;20006;-81
2023/10/19 09:54:37;;;;;;;;;;;;;;;17.22;57.74;101518.28;4959544;28;19928;-81
2023/10/19 09:57:03;;;;;;;;;;;;;;;17.18;57.83;101507.56;4972076;28;20037;-82
2023/10/19 09:59:38;;;;;;;;;;;;;;;17.18;58.22;101505.81;4970778;28;19914;-80
2023/10/19 10:02:06;;;;;;;;;;;;;;;17.18;58.21;101497.91;4954405;28;19914;-80
2023/10/19 10:04:32;;;;;;;;;;;;;;;17.20;59.03;101498.84;4971253;28;19921;-82
2023/10/19 10:06:59;;;;;;;;;;;;;;;17.20;58.00;101497.97;4961318;28;19919;-80
2023/10/19 10:09:25;;;;;;;;;;;;;;;17.19;59.29;101501.47;4968687;28;19914;-80
2023/10/19 10:11:54;;;;;;;;;;;;;;;17.19;58.96;101499.72;4953069;28;20013;-81
2023/10/19 10:14:26;;;;;;;;;;;;;;;17.23;60.41;101492.78;4970663;28;19921;-79
2023/10/19 10:17:01;;;;;;;;;;;;;;;17.22;60.71;101493.66;4955032;28;20041;-81
2023/10/19 10:19:26;;;;;;;;;;;;;;;17.21;60.31;101479.56;4960024;28;19918;-80
2023/10/19 10:22:11;;;;;;;;;;;;;;;17.24;60.34;101478.78;4971341;28;20297;-80
2023/10/19 10:24:41;;;;;;;;;;;;;;;17.24;60.96;101482.31;4971468;28;19914;-80
2023/10/19 10:27:06;;;;;;;;;;;;;;;17.27;61.50;101473.59;4969754;28;20464;-80
2023/10/19 10:29:32;;;;;;;;;;;;;;;17.30;60.79;101469.34;4952354;28;19915;-81
2023/10/19 10:31:58;;;;;;;;;;;;;;;17.33;61.64;101457.09;4965252;28;19918;-82
2023/10/19 10:34:42;;;;;;;;;;;;;;;17.34;62.27;101456.28;4958834;28;20411;-81
2023/10/19 10:37:08;;;;;;;;;;;;;;;17.41;61.71;101455.66;4971800;28;19922;-80
2023/10/19 10:39:38;;;;;;;;;;;;;;;17.36;60.98;101454.59;4968564;28;19926;-81
2023/10/19 10:42:04;;;;;;;;;;;;;;;17.34;61.39;101443.06;4967085;28;19926;-80
2023/10/19 10:44:42;;;;;;;;;;;;;;;17.29;60.82;101445.50;4971316;28;19940;-81
2023/10/19 10:47:08;;;;;;;;;;;;;;;17.28;60.59;101441.09;4971157;28;19926;-80
2023/10/19 10:49:46;;;;;;;;;;;;;;;17.26;60.86;101429.56;4971157;28;20379;-78
2023/10/19 10:52:11;;;;;;;;;;;;;;;17.34;60.54;101430.75;4919751;29;20324;-84
2023/10/19 10:54:36;;;;;;;;;;;;;;;17.34;60.29;101422.84;4959805;28;19929;-85
2023/10/19 10:57:02;;;;;;;;;;;;;;;17.35;60.20;101429.00;4954119;28;19937;-86
2023/10/19 10:59:27;;;;;;;;;;;;;;;17.40;60.27;101417.78;4969281;28;20459;-84
2023/10/19 11:01:53;;;;;;;;;;;;;;;17.39;60.17;101418.63;4952773;28;19918;-84
2023/10/19 11:04:18;;;;;;;;;;;;;;;17.47;59.78;101410.97;4936671;28;19918;-85
2023/10/19 11:06:48;;;;;;;;;;;;;;;17.55;59.39;101414.81;4971779;28;19914;-84
2023/10/19 11:09:18;;;;;;;;;;;;;;;17.52;59.69;101406.75;4950963;28;19914;-85
2023/10/19 11:11:44;;;;;;;;;;;;;;;17.47;60.21;101406.59;4966277;28;19940;-84
2023/10/19 11:14:11;;;;;;;;;;;;;;;17.54;59.80;101402.44;4952608;28;20399;-86
2023/10/19 11:16:37;;;;;;;;;;;;;;;17.45;60.27;101394.19;4970267;28;19921;-84
2023/10/19 11:19:02;;;;;;;;;;;;;;;17.43;60.17;101391.47;4967731;28;19927;-84
2023/10/19 11:21:28;;;;;;;;;;;;;;;17.38;60.45;101405.38;4973436;28;19920;-85
2023/10/19 11:23:53;;;;;;;;;;;;;;;17.45;60.47;101395.06;4974979;28;19918;-86
2023/10/19 11:26:20;;;;;;;;;;;;;;;17.49;59.92;101386.41;4958562;28;19953;-86
2023/10/19 11:28:51;;;;;;;;;;;;;;;17.37;60.51;101385.09;4974926;28;19968;-86
2023/10/19 11:31:23;;;;;;;;;;;;;;;17.40;60.26;101377.25;4948493;28;19919;-84
2023/10/19 11:33:49;;;;;;;;;;;;;;;17.44;59.79;101374.81;4963252;28;19919;-84
2023/10/19 11:36:14;;;;;;;;;;;;;;;17.39;60.22;101370.19;4940509;28;19989;-83
2023/10/19 11:38:41;;;;;;;;;;;;;;;17.43;59.20;101373.00;4947306;28;19983;-84
2023/10/19 11:41:07;;;;;;;;;;;;;;;17.54;58.90;101367.19;4945542;28;19914;-84
2023/10/19 11:43:34;;;;;;;;;;;;;;;17.42;58.92;101357.09;4967781;28;19974;-83
2023/10/19 11:45:59;;;;;;;;;;;;;;;17.40;58.52;101364.06;4974123;28;19914;-84
2023/10/19 11:48:25;;;;;;;;;;;;;;;17.40;58.62;101354.44;4954614;29;19922;-84
2023/10/19 11:50:51;;;;;;;;;;;;;;;17.43;58.36;101356.25;4956175;28;20424;-85
2023/10/19 11:53:16;;;;;;;;;;;;;;;17.43;58.19;101348.34;4972244;28;19914;-85
2023/10/19 11:55:42;;;;;;;;;;;;;;;17.44;57.93;101352.75;4973824;28;20396;-85
2023/10/19 11:58:13;;;;;;;;;;;;;;;17.46;58.23;101353.72;4975036;28;19922;-85
2023/10/19 12:00:39;;;;;;;;;;;;;;;17.49;58.38;101354.72;4972049;28;19925;-84
2023/10/19 12:03:06;;;;;;;;;;;;;;;17.48;57.93;101350.31;4969272;28;19919;-84
2023/10/19 12:05:31;;;;;;;;;;;;;;;17.49;57.71;101346.81;4967620;28;19918;-84
2023/10/19 12:07:57;;;;;;;;;;;;;;;17.49;57.84;101349.44;4974580;28;19921;-84
2023/10/19 12:10:32;;;;;;;;;;;;;;;17.46;57.27;101349.34;4974888;28;20445;-84
2023/10/19 12:12:57;;;;;;;;;;;;;;;17.52;57.51;101339.84;4967773;28;19924;-85
2023/10/19 12:15:23;;;;;;;;;;;;;;;17.54;57.33;101346.06;4968580;28;19922;-83
2023/10/19 12:17:50;;;;;;;;;;;;;;;17.56;56.91;101333.81;4973076;28;19944;-84
2023/10/19 12:20:16;;;;;;;;;;;;;;;17.57;57.13;101332.97;4973423;28;19969;-85
2023/10/19 12:22:42;;;;;;;;;;;;;;;17.56;57.13;101332.06;4959721;28;19918;-84
2023/10/19 12:25:08;;;;;;;;;;;;;;;17.58;57.12;101321.56;4972447;28;19921;-84
2023/10/19 12:27:33;;;;;;;;;;;;;;;17.56;56.88;101333.81;4941169;28;19922;-85
2023/10/19 12:29:59;;;;;;;;;;;;;;;17.55;57.24;101319.72;4969618;28;19965;-83
2023/10/19 12:32:25;;;;;;;;;;;;;;;17.62;56.96;101312.91;4973230;28;19921;-82
2023/10/19 12:34:56;;;;;;;;;;;;;;;17.59;56.76;101318.06;4943197;28;19914;-84
2023/10/19 12:37:24;;;;;;;;;;;;;;;17.59;56.88;101318.06;4974008;28;19921;-84
2023/10/19 12:39:49;;;;;;;;;;;;;;;17.56;57.09;101312.69;4968251;28;19923;-83
2023/10/19 12:42:15;;;;;;;;;;;;;;;17.58;57.08;101308.38;4964209;28;19915;-83
2023/10/19 12:44:43;;;;;;;;;;;;;;;17.56;56.97;101316.22;4955375;28;19981;-85
2023/10/19 12:47:10;;;;;;;;;;;;;;;17.53;56.99;101308.22;4973855;28;19962;-84
2023/10/19 12:49:36;;;;;;;;;;;;;;;17.56;57.49;101307.41;4956985;28;19914;-81